sensor_id;sensor_type;location;lat;lon;timestamp;P1;durP1;ratioP1;P2;durP2;ratioP2
9138;SDS011;4604;48.616;9.548;2022-07-29T00:01:13;6.38;;;5.00;;
9138;SDS011;4604;48.616;9.548;2022-07-29T00:03:41;5.35;;;4.43;;
9138;SDS011;4604;48.616;9.548;2022-07-29T00:06:08;5.22;;;4.72;;
9138;SDS011;4604;48.616;9.548;2022-07-29T00:08:35;5.57;;;4.38;;
9138;SDS011;4604;48.616;9.548;2022-07-29T00:11:02;5.00;;;4.50;;
9138;SDS011;4604;48.616;9.548;2022-07-29T00:13:29;4.68;;;4.18;;
9138;SDS011;4604;48.616;9.548;2022-07-29T00:15:57;7.65;;;4.38;;
9138;SDS011;4604;48.616;9.548;2022-07-29T00:18:24;4.60;;;4.20;;
9138;SDS011;4604;48.616;9.548;2022-07-29T00:20:50;5.45;;;4.00;;
9138;SDS011;4604;48.616;9.548;2022-07-29T00:23:19;4.88;;;4.25;;
9138;SDS011;4604;48.616;9.548;2022-07-29T00:25:46;4.72;;;4.20;;
9138;SDS011;4604;48.616;9.548;2022-07-29T00:28:12;4.30;;;3.92;;
9138;SDS011;4604;48.616;9.548;2022-07-29T00:30:39;4.18;;;3.78;;
9138;SDS011;4604;48.616;9.548;2022-07-29T00:33:09;4.32;;;3.80;;
9138;SDS011;4604;48.616;9.548;2022-07-29T00:35:36;4.38;;;3.97;;
9138;SDS011;4604;48.616;9.548;2022-07-29T00:38:11;4.35;;;3.95;;
9138;SDS011;4604;48.616;9.548;2022-07-29T00:40:39;4.82;;;4.05;;
9138;SDS011;4604;48.616;9.548;2022-07-29T00:43:06;4.97;;;3.75;;
9138;SDS011;4604;48.616;9.548;2022-07-29T00:45:33;4.10;;;3.70;;
9138;SDS011;4604;48.616;9.548;2022-07-29T00:48:01;3.63;;;3.33;;
9138;SDS011;4604;48.616;9.548;2022-07-29T00:50:31;5.10;;;4.53;;
9138;SDS011;4604;48.616;9.548;2022-07-29T00:52:59;4.65;;;4.15;;
9138;SDS011;4604;48.616;9.548;2022-07-29T00:55:26;4.30;;;3.85;;
9138;SDS011;4604;48.616;9.548;2022-07-29T00:57:55;4.55;;;4.15;;
9138;SDS011;4604;48.616;9.548;2022-07-29T01:00:25;4.30;;;3.42;;
9138;SDS011;4604;48.616;9.548;2022-07-29T01:02:53;4.18;;;3.50;;
9138;SDS011;4604;48.616;9.548;2022-07-29T01:05:26;3.90;;;3.60;;
9138;SDS011;4604;48.616;9.548;2022-07-29T01:07:55;3.72;;;3.42;;
9138;SDS011;4604;48.616;9.548;2022-07-29T01:10:24;4.55;;;3.53;;
9138;SDS011;4604;48.616;9.548;2022-07-29T01:12:52;4.22;;;3.40;;
9138;SDS011;4604;48.616;9.548;2022-07-29T01:15:23;3.45;;;3.10;;
9138;SDS011;4604;48.616;9.548;2022-07-29T01:17:53;4.22;;;3.60;;
9138;SDS011;4604;48.616;9.548;2022-07-29T01:20:31;4.05;;;3.63;;
9138;SDS011;4604;48.616;9.548;2022-07-29T01:23:16;5.13;;;3.72;;
9138;SDS011;4604;48.616;9.548;2022-07-29T01:26:28;3.63;;;3.33;;
9138;SDS011;4604;48.616;9.548;2022-07-29T01:29:03;3.50;;;3.20;;
9138;SDS011;4604;48.616;9.548;2022-07-29T01:31:41;3.63;;;3.05;;
9138;SDS011;4604;48.616;9.548;2022-07-29T01:34:18;3.53;;;3.20;;
9138;SDS011;4604;48.616;9.548;2022-07-29T01:36:51;4.75;;;3.03;;
9138;SDS011;4604;48.616;9.548;2022-07-29T01:39:29;3.15;;;2.90;;
9138;SDS011;4604;48.616;9.548;2022-07-29T01:41:58;3.60;;;3.30;;
9138;SDS011;4604;48.616;9.548;2022-07-29T01:44:34;3.88;;;3.53;;
9138;SDS011;4604;48.616;9.548;2022-07-29T01:47:10;3.70;;;3.38;;
9138;SDS011;4604;48.616;9.548;2022-07-29T01:49:46;3.00;;;2.80;;
9138;SDS011;4604;48.616;9.548;2022-07-29T01:52:19;3.47;;;3.17;;
9138;SDS011;4604;48.616;9.548;2022-07-29T01:54:51;4.28;;;3.28;;
9138;SDS011;4604;48.616;9.548;2022-07-29T01:57:28;3.78;;;3.47;;
9138;SDS011;4604;48.616;9.548;2022-07-29T01:59:58;3.90;;;3.17;;
9138;SDS011;4604;48.616;9.548;2022-07-29T02:02:27;3.78;;;3.47;;
9138;SDS011;4604;48.616;9.548;2022-07-29T02:04:56;3.55;;;3.25;;
9138;SDS011;4604;48.616;9.548;2022-07-29T02:07:25;3.92;;;3.35;;
9138;SDS011;4604;48.616;9.548;2022-07-29T02:09:55;3.45;;;3.15;;
9138;SDS011;4604;48.616;9.548;2022-07-29T02:12:25;3.05;;;2.75;;
9138;SDS011;4604;48.616;9.548;2022-07-29T02:14:54;3.20;;;2.90;;
9138;SDS011;4604;48.616;9.548;2022-07-29T02:17:26;3.30;;;3.00;;
9138;SDS011;4604;48.616;9.548;2022-07-29T02:20:02;3.60;;;3.13;;
9138;SDS011;4604;48.616;9.548;2022-07-29T02:22:31;3.55;;;3.17;;
9138;SDS011;4604;48.616;9.548;2022-07-29T02:25:01;4.68;;;3.47;;
9138;SDS011;4604;48.616;9.548;2022-07-29T02:27:28;3.00;;;2.70;;
9138;SDS011;4604;48.616;9.548;2022-07-29T02:29:58;5.00;;;2.78;;
9138;SDS011;4604;48.616;9.548;2022-07-29T02:32:28;3.40;;;3.00;;
9138;SDS011;4604;48.616;9.548;2022-07-29T02:34:57;2.88;;;2.55;;
9138;SDS011;4604;48.616;9.548;2022-07-29T02:37:25;2.70;;;2.50;;
9138;SDS011;4604;48.616;9.548;2022-07-29T02:39:54;3.03;;;2.67;;
9138;SDS011;4604;48.616;9.548;2022-07-29T02:42:26;3.13;;;2.67;;
9138;SDS011;4604;48.616;9.548;2022-07-29T02:44:54;3.22;;;2.67;;
9138;SDS011;4604;48.616;9.548;2022-07-29T02:47:30;2.70;;;2.20;;
9138;SDS011;4604;48.616;9.548;2022-07-29T02:50:03;3.03;;;2.72;;
9138;SDS011;4604;48.616;9.548;2022-07-29T02:52:35;3.10;;;2.63;;
9138;SDS011;4604;48.616;9.548;2022-07-29T02:55:07;6.43;;;3.10;;
9138;SDS011;4604;48.616;9.548;2022-07-29T02:57:42;4.43;;;3.13;;
9138;SDS011;4604;48.616;9.548;2022-07-29T03:00:11;3.58;;;3.28;;
9138;SDS011;4604;48.616;9.548;2022-07-29T03:02:42;3.55;;;3.25;;
9138;SDS011;4604;48.616;9.548;2022-07-29T03:05:15;2.97;;;2.67;;
9138;SDS011;4604;48.616;9.548;2022-07-29T03:07:45;2.67;;;2.47;;
9138;SDS011;4604;48.616;9.548;2022-07-29T03:10:13;4.32;;;2.78;;
9138;SDS011;4604;48.616;9.548;2022-07-29T03:12:40;2.45;;;2.25;;
9138;SDS011;4604;48.616;9.548;2022-07-29T03:15:08;3.38;;;2.33;;
9138;SDS011;4604;48.616;9.548;2022-07-29T03:17:37;2.60;;;2.40;;
9138;SDS011;4604;48.616;9.548;2022-07-29T03:20:08;2.50;;;2.30;;
9138;SDS011;4604;48.616;9.548;2022-07-29T03:22:38;2.55;;;2.35;;
9138;SDS011;4604;48.616;9.548;2022-07-29T03:25:08;3.08;;;2.38;;
9138;SDS011;4604;48.616;9.548;2022-07-29T03:27:36;2.50;;;2.10;;
9138;SDS011;4604;48.616;9.548;2022-07-29T03:30:03;2.50;;;2.30;;
9138;SDS011;4604;48.616;9.548;2022-07-29T03:32:30;3.03;;;2.22;;
9138;SDS011;4604;48.616;9.548;2022-07-29T03:34:57;5.55;;;2.40;;
9138;SDS011;4604;48.616;9.548;2022-07-29T03:37:26;3.30;;;2.40;;
9138;SDS011;4604;48.616;9.548;2022-07-29T03:39:54;3.58;;;2.45;;
9138;SDS011;4604;48.616;9.548;2022-07-29T03:42:23;2.40;;;2.20;;
9138;SDS011;4604;48.616;9.548;2022-07-29T03:44:52;2.85;;;2.30;;
9138;SDS011;4604;48.616;9.548;2022-07-29T03:47:20;3.08;;;2.70;;
9138;SDS011;4604;48.616;9.548;2022-07-29T03:49:52;2.70;;;2.50;;
9138;SDS011;4604;48.616;9.548;2022-07-29T03:52:23;4.20;;;2.63;;
9138;SDS011;4604;48.616;9.548;2022-07-29T03:54:51;2.72;;;2.45;;
9138;SDS011;4604;48.616;9.548;2022-07-29T03:57:19;2.97;;;2.55;;
9138;SDS011;4604;48.616;9.548;2022-07-29T03:59:50;3.88;;;2.50;;
9138;SDS011;4604;48.616;9.548;2022-07-29T04:02:18;2.45;;;2.25;;
9138;SDS011;4604;48.616;9.548;2022-07-29T04:04:46;3.88;;;2.30;;
9138;SDS011;4604;48.616;9.548;2022-07-29T04:07:13;2.90;;;2.50;;
9138;SDS011;4604;48.616;9.548;2022-07-29T04:09:40;3.85;;;2.47;;
9138;SDS011;4604;48.616;9.548;2022-07-29T04:12:09;5.20;;;2.70;;
9138;SDS011;4604;48.616;9.548;2022-07-29T04:14:36;3.72;;;2.33;;
9138;SDS011;4604;48.616;9.548;2022-07-29T04:17:03;2.53;;;2.33;;
9138;SDS011;4604;48.616;9.548;2022-07-29T04:19:31;3.13;;;2.22;;
9138;SDS011;4604;48.616;9.548;2022-07-29T04:21:59;2.53;;;2.33;;
9138;SDS011;4604;48.616;9.548;2022-07-29T04:24:27;2.67;;;2.47;;
9138;SDS011;4604;48.616;9.548;2022-07-29T04:26:54;3.55;;;2.45;;
9138;SDS011;4604;48.616;9.548;2022-07-29T04:29:23;3.80;;;2.50;;
9138;SDS011;4604;48.616;9.548;2022-07-29T04:31:50;2.67;;;2.30;;
9138;SDS011;4604;48.616;9.548;2022-07-29T04:34:17;2.63;;;2.42;;
9138;SDS011;4604;48.616;9.548;2022-07-29T04:36:43;3.85;;;2.28;;
9138;SDS011;4604;48.616;9.548;2022-07-29T04:39:10;3.33;;;2.40;;
9138;SDS011;4604;48.616;9.548;2022-07-29T04:41:39;2.70;;;2.50;;
9138;SDS011;4604;48.616;9.548;2022-07-29T04:44:06;2.40;;;2.20;;
9138;SDS011;4604;48.616;9.548;2022-07-29T04:46:34;4.22;;;2.30;;
9138;SDS011;4604;48.616;9.548;2022-07-29T04:49:02;3.47;;;2.28;;
9138;SDS011;4604;48.616;9.548;2022-07-29T04:51:29;3.58;;;2.63;;
9138;SDS011;4604;48.616;9.548;2022-07-29T04:53:56;2.75;;;2.55;;
9138;SDS011;4604;48.616;9.548;2022-07-29T04:56:23;2.63;;;2.30;;
9138;SDS011;4604;48.616;9.548;2022-07-29T04:58:50;2.35;;;2.15;;
9138;SDS011;4604;48.616;9.548;2022-07-29T05:01:18;2.67;;;2.47;;
9138;SDS011;4604;48.616;9.548;2022-07-29T05:03:47;2.80;;;2.17;;
9138;SDS011;4604;48.616;9.548;2022-07-29T05:06:13;2.60;;;2.40;;
9138;SDS011;4604;48.616;9.548;2022-07-29T05:08:41;2.40;;;2.20;;
9138;SDS011;4604;48.616;9.548;2022-07-29T05:11:08;3.65;;;2.30;;
9138;SDS011;4604;48.616;9.548;2022-07-29T05:13:35;2.45;;;2.20;;
9138;SDS011;4604;48.616;9.548;2022-07-29T05:16:02;2.42;;;2.22;;
9138;SDS011;4604;48.616;9.548;2022-07-29T05:18:29;2.22;;;2.03;;
9138;SDS011;4604;48.616;9.548;2022-07-29T05:20:57;2.80;;;2.20;;
9138;SDS011;4604;48.616;9.548;2022-07-29T05:23:31;3.72;;;2.63;;
9138;SDS011;4604;48.616;9.548;2022-07-29T05:25:58;2.83;;;2.53;;
9138;SDS011;4604;48.616;9.548;2022-07-29T05:28:28;2.58;;;2.38;;
9138;SDS011;4604;48.616;9.548;2022-07-29T05:30:55;2.60;;;2.20;;
9138;SDS011;4604;48.616;9.548;2022-07-29T05:33:22;2.47;;;2.20;;
9138;SDS011;4604;48.616;9.548;2022-07-29T05:35:49;2.40;;;2.20;;
9138;SDS011;4604;48.616;9.548;2022-07-29T05:38:17;2.50;;;2.30;;
9138;SDS011;4604;48.616;9.548;2022-07-29T05:40:44;4.40;;;2.40;;
9138;SDS011;4604;48.616;9.548;2022-07-29T05:43:10;2.72;;;2.40;;
9138;SDS011;4604;48.616;9.548;2022-07-29T05:45:38;4.68;;;2.50;;
9138;SDS011;4604;48.616;9.548;2022-07-29T05:48:05;2.45;;;2.25;;
9138;SDS011;4604;48.616;9.548;2022-07-29T05:50:32;2.40;;;2.20;;
9138;SDS011;4604;48.616;9.548;2022-07-29T05:52:58;3.15;;;2.85;;
9138;SDS011;4604;48.616;9.548;2022-07-29T05:55:27;3.15;;;2.85;;
9138;SDS011;4604;48.616;9.548;2022-07-29T05:57:53;3.28;;;2.97;;
9138;SDS011;4604;48.616;9.548;2022-07-29T06:00:20;4.30;;;3.42;;
9138;SDS011;4604;48.616;9.548;2022-07-29T06:02:47;3.97;;;3.58;;
9138;SDS011;4604;48.616;9.548;2022-07-29T06:05:14;4.20;;;3.80;;
9138;SDS011;4604;48.616;9.548;2022-07-29T06:07:41;4.47;;;4.07;;
9138;SDS011;4604;48.616;9.548;2022-07-29T06:10:08;4.60;;;4.18;;
9138;SDS011;4604;48.616;9.548;2022-07-29T06:12:37;5.32;;;4.20;;
9138;SDS011;4604;48.616;9.548;2022-07-29T06:15:04;5.20;;;4.53;;
9138;SDS011;4604;48.616;9.548;2022-07-29T06:17:31;5.05;;;4.55;;
9138;SDS011;4604;48.616;9.548;2022-07-29T06:19:58;5.10;;;4.60;;
9138;SDS011;4604;48.616;9.548;2022-07-29T06:22:31;4.80;;;3.80;;
9138;SDS011;4604;48.616;9.548;2022-07-29T06:24:58;5.07;;;4.25;;
9138;SDS011;4604;48.616;9.548;2022-07-29T06:29:57;4.78;;;4.20;;
9138;SDS011;4604;48.616;9.548;2022-07-29T06:32:24;4.00;;;3.60;;
9138;SDS011;4604;48.616;9.548;2022-07-29T06:34:51;5.25;;;3.60;;
9138;SDS011;4604;48.616;9.548;2022-07-29T06:37:17;4.20;;;3.55;;
9138;SDS011;4604;48.616;9.548;2022-07-29T06:39:44;7.80;;;4.93;;
9138;SDS011;4604;48.616;9.548;2022-07-29T06:42:11;8.13;;;5.85;;
9138;SDS011;4604;48.616;9.548;2022-07-29T06:44:38;6.20;;;4.90;;
9138;SDS011;4604;48.616;9.548;2022-07-29T06:47:06;6.88;;;3.90;;
9138;SDS011;4604;48.616;9.548;2022-07-29T06:49:33;6.85;;;3.70;;
9138;SDS011;4604;48.616;9.548;2022-07-29T06:52:00;4.30;;;3.90;;
9138;SDS011;4604;48.616;9.548;2022-07-29T06:54:27;4.05;;;3.65;;
9138;SDS011;4604;48.616;9.548;2022-07-29T06:56:54;5.95;;;3.53;;
9138;SDS011;4604;48.616;9.548;2022-07-29T06:59:20;4.00;;;3.40;;
9138;SDS011;4604;48.616;9.548;2022-07-29T07:01:47;6.35;;;3.60;;
9138;SDS011;4604;48.616;9.548;2022-07-29T07:04:15;5.55;;;3.85;;
9138;SDS011;4604;48.616;9.548;2022-07-29T07:06:42;4.18;;;3.50;;
9138;SDS011;4604;48.616;9.548;2022-07-29T07:09:09;6.00;;;3.60;;
9138;SDS011;4604;48.616;9.548;2022-07-29T07:11:36;10.05;;;4.13;;
9138;SDS011;4604;48.616;9.548;2022-07-29T07:14:03;4.78;;;3.97;;
9138;SDS011;4604;48.616;9.548;2022-07-29T07:16:30;4.43;;;4.00;;
9138;SDS011;4604;48.616;9.548;2022-07-29T07:18:57;5.35;;;4.00;;
9138;SDS011;4604;48.616;9.548;2022-07-29T07:21:25;4.50;;;3.40;;
9138;SDS011;4604;48.616;9.548;2022-07-29T07:23:52;4.32;;;3.92;;
9138;SDS011;4604;48.616;9.548;2022-07-29T07:26:19;6.05;;;4.30;;
9138;SDS011;4604;48.616;9.548;2022-07-29T07:28:46;4.45;;;3.70;;
9138;SDS011;4604;48.616;9.548;2022-07-29T07:31:13;3.35;;;3.05;;
9138;SDS011;4604;48.616;9.548;2022-07-29T07:33:40;3.50;;;3.20;;
9138;SDS011;4604;48.616;9.548;2022-07-29T07:36:06;5.50;;;3.65;;
9138;SDS011;4604;48.616;9.548;2022-07-29T07:38:35;4.43;;;3.75;;
9138;SDS011;4604;48.616;9.548;2022-07-29T07:41:02;6.75;;;3.65;;
9138;SDS011;4604;48.616;9.548;2022-07-29T07:43:30;6.88;;;3.95;;
9138;SDS011;4604;48.616;9.548;2022-07-29T07:45:57;5.15;;;3.95;;
9138;SDS011;4604;48.616;9.548;2022-07-29T07:48:24;5.80;;;3.67;;
9138;SDS011;4604;48.616;9.548;2022-07-29T07:50:51;3.90;;;3.55;;
9138;SDS011;4604;48.616;9.548;2022-07-29T07:53:18;3.65;;;3.22;;
9138;SDS011;4604;48.616;9.548;2022-07-29T07:55:46;5.10;;;3.47;;
9138;SDS011;4604;48.616;9.548;2022-07-29T07:58:13;4.15;;;3.72;;
9138;SDS011;4604;48.616;9.548;2022-07-29T08:00:40;5.05;;;4.28;;
9138;SDS011;4604;48.616;9.548;2022-07-29T08:03:08;5.10;;;4.28;;
9138;SDS011;4604;48.616;9.548;2022-07-29T08:05:37;6.25;;;3.88;;
9138;SDS011;4604;48.616;9.548;2022-07-29T08:08:04;4.80;;;4.15;;
9138;SDS011;4604;48.616;9.548;2022-07-29T08:10:31;6.53;;;4.18;;
9138;SDS011;4604;48.616;9.548;2022-07-29T08:13:18;5.57;;;3.90;;
9138;SDS011;4604;48.616;9.548;2022-07-29T08:15:45;4.28;;;3.72;;
9138;SDS011;4604;48.616;9.548;2022-07-29T08:18:12;6.13;;;4.03;;
9138;SDS011;4604;48.616;9.548;2022-07-29T08:20:40;3.97;;;3.67;;
9138;SDS011;4604;48.616;9.548;2022-07-29T08:23:07;4.18;;;3.83;;
9138;SDS011;4604;48.616;9.548;2022-07-29T08:25:35;4.72;;;4.15;;
9138;SDS011;4604;48.616;9.548;2022-07-29T08:28:03;4.40;;;4.00;;
9138;SDS011;4604;48.616;9.548;2022-07-29T08:30:32;4.72;;;3.72;;
9138;SDS011;4604;48.616;9.548;2022-07-29T08:32:59;5.20;;;4.15;;
9138;SDS011;4604;48.616;9.548;2022-07-29T08:35:27;7.18;;;4.32;;
9138;SDS011;4604;48.616;9.548;2022-07-29T08:37:54;4.60;;;4.00;;
9138;SDS011;4604;48.616;9.548;2022-07-29T08:40:22;4.22;;;3.83;;
9138;SDS011;4604;48.616;9.548;2022-07-29T08:42:49;4.65;;;4.10;;
9138;SDS011;4604;48.616;9.548;2022-07-29T08:45:16;5.97;;;4.10;;
9138;SDS011;4604;48.616;9.548;2022-07-29T08:47:44;6.45;;;4.07;;
9138;SDS011;4604;48.616;9.548;2022-07-29T08:50:11;8.93;;;4.60;;
9138;SDS011;4604;48.616;9.548;2022-07-29T08:52:40;4.90;;;4.40;;
9138;SDS011;4604;48.616;9.548;2022-07-29T08:55:07;5.07;;;4.32;;
9138;SDS011;4604;48.616;9.548;2022-07-29T08:57:35;6.88;;;4.63;;
9138;SDS011;4604;48.616;9.548;2022-07-29T09:00:05;10.43;;;5.00;;
9138;SDS011;4604;48.616;9.548;2022-07-29T09:02:35;5.80;;;4.72;;
9138;SDS011;4604;48.616;9.548;2022-07-29T09:05:06;4.90;;;4.30;;
9138;SDS011;4604;48.616;9.548;2022-07-29T09:07:34;5.05;;;4.65;;
9138;SDS011;4604;48.616;9.548;2022-07-29T09:10:02;6.32;;;5.43;;
9138;SDS011;4604;48.616;9.548;2022-07-29T09:12:33;5.60;;;4.00;;
9138;SDS011;4604;48.616;9.548;2022-07-29T09:15:00;7.10;;;5.07;;
9138;SDS011;4604;48.616;9.548;2022-07-29T09:17:39;7.78;;;5.10;;
9138;SDS011;4604;48.616;9.548;2022-07-29T09:20:10;4.93;;;4.43;;
9138;SDS011;4604;48.616;9.548;2022-07-29T09:22:38;5.55;;;4.90;;
9138;SDS011;4604;48.616;9.548;2022-07-29T09:25:06;6.53;;;5.00;;
9138;SDS011;4604;48.616;9.548;2022-07-29T09:27:34;7.25;;;5.00;;
9138;SDS011;4604;48.616;9.548;2022-07-29T09:30:03;10.57;;;5.35;;
9138;SDS011;4604;48.616;9.548;2022-07-29T09:32:33;6.80;;;5.03;;
9138;SDS011;4604;48.616;9.548;2022-07-29T09:35:22;5.13;;;4.63;;
9138;SDS011;4604;48.616;9.548;2022-07-29T09:37:51;9.98;;;5.45;;
9138;SDS011;4604;48.616;9.548;2022-07-29T09:40:18;5.15;;;4.50;;
9138;SDS011;4604;48.616;9.548;2022-07-29T09:42:46;7.60;;;4.70;;
9138;SDS011;4604;48.616;9.548;2022-07-29T09:45:25;5.78;;;4.60;;
9138;SDS011;4604;48.616;9.548;2022-07-29T09:47:54;5.50;;;4.78;;
9138;SDS011;4604;48.616;9.548;2022-07-29T09:50:35;5.95;;;5.13;;
9138;SDS011;4604;48.616;9.548;2022-07-29T09:53:03;4.80;;;4.38;;
9138;SDS011;4604;48.616;9.548;2022-07-29T09:58:15;4.53;;;4.13;;
9138;SDS011;4604;48.616;9.548;2022-07-29T10:00:43;5.30;;;4.80;;
9138;SDS011;4604;48.616;9.548;2022-07-29T10:03:11;7.15;;;4.85;;
9138;SDS011;4604;48.616;9.548;2022-07-29T10:05:39;8.43;;;4.63;;
9138;SDS011;4604;48.616;9.548;2022-07-29T10:08:07;5.90;;;4.55;;
9138;SDS011;4604;48.616;9.548;2022-07-29T10:10:35;4.55;;;4.18;;
9138;SDS011;4604;48.616;9.548;2022-07-29T10:13:04;6.07;;;4.53;;
9138;SDS011;4604;48.616;9.548;2022-07-29T10:15:35;7.38;;;4.28;;
9138;SDS011;4604;48.616;9.548;2022-07-29T10:18:04;7.95;;;4.60;;
9138;SDS011;4604;48.616;9.548;2022-07-29T10:20:35;4.80;;;4.40;;
9138;SDS011;4604;48.616;9.548;2022-07-29T10:23:03;4.75;;;4.15;;
9138;SDS011;4604;48.616;9.548;2022-07-29T10:25:37;5.68;;;4.30;;
9138;SDS011;4604;48.616;9.548;2022-07-29T10:28:05;4.80;;;4.07;;
9138;SDS011;4604;48.616;9.548;2022-07-29T10:30:32;9.57;;;4.85;;
9138;SDS011;4604;48.616;9.548;2022-07-29T10:36:03;8.18;;;4.80;;
9138;SDS011;4604;48.616;9.548;2022-07-29T10:38:45;6.05;;;4.90;;
9138;SDS011;4604;48.616;9.548;2022-07-29T10:41:20;6.18;;;4.95;;
9138;SDS011;4604;48.616;9.548;2022-07-29T10:44:08;6.72;;;4.88;;
9138;SDS011;4604;48.616;9.548;2022-07-29T10:46:39;6.80;;;5.13;;
9138;SDS011;4604;48.616;9.548;2022-07-29T10:49:07;5.43;;;4.93;;
9138;SDS011;4604;48.616;9.548;2022-07-29T10:57:18;5.63;;;4.60;;
9138;SDS011;4604;48.616;9.548;2022-07-29T10:59:47;9.07;;;5.38;;
9138;SDS011;4604;48.616;9.548;2022-07-29T11:05:08;9.32;;;5.35;;
9138;SDS011;4604;48.616;9.548;2022-07-29T11:07:37;5.00;;;4.60;;
9138;SDS011;4604;48.616;9.548;2022-07-29T11:10:23;5.95;;;4.85;;
9138;SDS011;4604;48.616;9.548;2022-07-29T11:12:50;5.57;;;5.07;;
9138;SDS011;4604;48.616;9.548;2022-07-29T11:15:18;10.35;;;5.45;;
9138;SDS011;4604;48.616;9.548;2022-07-29T11:18:05;5.65;;;5.05;;
9138;SDS011;4604;48.616;9.548;2022-07-29T11:20:34;5.68;;;5.18;;
9138;SDS011;4604;48.616;9.548;2022-07-29T11:23:19;7.18;;;5.22;;
9138;SDS011;4604;48.616;9.548;2022-07-29T11:28:50;5.95;;;5.32;;
9138;SDS011;4604;48.616;9.548;2022-07-29T11:31:19;5.95;;;5.10;;
9138;SDS011;4604;48.616;9.548;2022-07-29T11:39:41;9.70;;;5.10;;
9138;SDS011;4604;48.616;9.548;2022-07-29T11:45:07;7.45;;;5.10;;
9138;SDS011;4604;48.616;9.548;2022-07-29T11:47:36;6.75;;;5.57;;
9138;SDS011;4604;48.616;9.548;2022-07-29T11:50:04;5.53;;;5.00;;
9138;SDS011;4604;48.616;9.548;2022-07-29T11:52:34;7.65;;;5.20;;
9138;SDS011;4604;48.616;9.548;2022-07-29T11:55:03;5.28;;;4.78;;
9138;SDS011;4604;48.616;9.548;2022-07-29T11:57:32;5.30;;;4.80;;
9138;SDS011;4604;48.616;9.548;2022-07-29T12:00:03;5.72;;;4.25;;
9138;SDS011;4604;48.616;9.548;2022-07-29T12:02:39;4.53;;;3.33;;
9138;SDS011;4604;48.616;9.548;2022-07-29T12:05:08;4.50;;;3.17;;
9138;SDS011;4604;48.616;9.548;2022-07-29T12:07:36;8.23;;;3.38;;
9138;SDS011;4604;48.616;9.548;2022-07-29T12:10:05;5.65;;;3.22;;
9138;SDS011;4604;48.616;9.548;2022-07-29T12:12:33;3.70;;;3.40;;
9138;SDS011;4604;48.616;9.548;2022-07-29T12:17:45;4.22;;;3.60;;
9138;SDS011;4604;48.616;9.548;2022-07-29T12:20:13;8.82;;;4.13;;
9138;SDS011;4604;48.616;9.548;2022-07-29T12:22:49;3.97;;;3.50;;
9138;SDS011;4604;48.616;9.548;2022-07-29T12:25:16;5.15;;;4.28;;
9138;SDS011;4604;48.616;9.548;2022-07-29T12:27:43;3.83;;;3.42;;
9138;SDS011;4604;48.616;9.548;2022-07-29T12:30:12;3.38;;;3.10;;
9138;SDS011;4604;48.616;9.548;2022-07-29T12:32:42;3.58;;;2.92;;
9138;SDS011;4604;48.616;9.548;2022-07-29T12:35:10;3.92;;;3.13;;
9138;SDS011;4604;48.616;9.548;2022-07-29T12:37:40;4.53;;;3.28;;
9138;SDS011;4604;48.616;9.548;2022-07-29T12:40:08;3.67;;;3.05;;
9138;SDS011;4604;48.616;9.548;2022-07-29T12:42:38;4.47;;;2.70;;
9138;SDS011;4604;48.616;9.548;2022-07-29T12:45:06;4.70;;;2.72;;
9138;SDS011;4604;48.616;9.548;2022-07-29T12:47:33;4.57;;;2.88;;
9138;SDS011;4604;48.616;9.548;2022-07-29T12:50:19;3.83;;;2.97;;
9138;SDS011;4604;48.616;9.548;2022-07-29T12:52:46;4.78;;;3.00;;
9138;SDS011;4604;48.616;9.548;2022-07-29T12:55:13;3.00;;;2.80;;
9138;SDS011;4604;48.616;9.548;2022-07-29T12:57:46;5.18;;;3.20;;
9138;SDS011;4604;48.616;9.548;2022-07-29T13:00:15;4.28;;;3.08;;
9138;SDS011;4604;48.616;9.548;2022-07-29T13:02:43;3.63;;;2.70;;
9138;SDS011;4604;48.616;9.548;2022-07-29T13:05:11;11.88;;;3.05;;
9138;SDS011;4604;48.616;9.548;2022-07-29T13:07:38;6.78;;;3.20;;
9138;SDS011;4604;48.616;9.548;2022-07-29T13:10:12;4.47;;;2.97;;
9138;SDS011;4604;48.616;9.548;2022-07-29T13:15:33;3.53;;;3.03;;
9138;SDS011;4604;48.616;9.548;2022-07-29T13:18:00;3.13;;;2.80;;
9138;SDS011;4604;48.616;9.548;2022-07-29T13:20:29;3.40;;;3.10;;
9138;SDS011;4604;48.616;9.548;2022-07-29T13:22:56;3.88;;;2.90;;
9138;SDS011;4604;48.616;9.548;2022-07-29T13:25:24;5.65;;;3.38;;
9138;SDS011;4604;48.616;9.548;2022-07-29T13:27:52;3.50;;;3.20;;
9138;SDS011;4604;48.616;9.548;2022-07-29T13:30:19;3.72;;;3.10;;
9138;SDS011;4604;48.616;9.548;2022-07-29T13:32:47;3.65;;;3.22;;
9138;SDS011;4604;48.616;9.548;2022-07-29T13:35:14;3.83;;;3.30;;
9138;SDS011;4604;48.616;9.548;2022-07-29T13:37:42;3.90;;;3.10;;
9138;SDS011;4604;48.616;9.548;2022-07-29T13:40:10;3.75;;;3.45;;
9138;SDS011;4604;48.616;9.548;2022-07-29T13:42:37;3.83;;;3.45;;
9138;SDS011;4604;48.616;9.548;2022-07-29T13:45:05;6.32;;;3.42;;
9138;SDS011;4604;48.616;9.548;2022-07-29T13:47:33;4.32;;;3.40;;
9138;SDS011;4604;48.616;9.548;2022-07-29T13:50:00;3.53;;;3.22;;
9138;SDS011;4604;48.616;9.548;2022-07-29T13:52:27;3.90;;;3.60;;
9138;SDS011;4604;48.616;9.548;2022-07-29T13:54:56;4.38;;;3.35;;
9138;SDS011;4604;48.616;9.548;2022-07-29T13:57:23;3.08;;;2.88;;
9138;SDS011;4604;48.616;9.548;2022-07-29T13:59:50;3.47;;;3.17;;
9138;SDS011;4604;48.616;9.548;2022-07-29T14:02:17;3.50;;;3.20;;
9138;SDS011;4604;48.616;9.548;2022-07-29T14:04:43;4.10;;;3.50;;
9138;SDS011;4604;48.616;9.548;2022-07-29T14:07:10;4.78;;;3.88;;
9138;SDS011;4604;48.616;9.548;2022-07-29T14:09:39;5.82;;;3.45;;
9138;SDS011;4604;48.616;9.548;2022-07-29T14:12:08;3.90;;;3.50;;
9138;SDS011;4604;48.616;9.548;2022-07-29T14:14:41;3.97;;;3.58;;
9138;SDS011;4604;48.616;9.548;2022-07-29T14:17:10;5.60;;;3.80;;
9138;SDS011;4604;48.616;9.548;2022-07-29T14:19:38;4.90;;;4.10;;
9138;SDS011;4604;48.616;9.548;2022-07-29T14:22:06;3.90;;;3.60;;
9138;SDS011;4604;48.616;9.548;2022-07-29T14:27:06;4.80;;;4.30;;
9138;SDS011;4604;48.616;9.548;2022-07-29T14:32:05;4.30;;;3.90;;
9138;SDS011;4604;48.616;9.548;2022-07-29T14:34:33;4.00;;;3.55;;
9138;SDS011;4604;48.616;9.548;2022-07-29T14:36:59;4.13;;;3.78;;
9138;SDS011;4604;48.616;9.548;2022-07-29T14:39:27;4.05;;;3.70;;
9138;SDS011;4604;48.616;9.548;2022-07-29T14:41:55;4.72;;;3.80;;
9138;SDS011;4604;48.616;9.548;2022-07-29T14:44:23;4.10;;;3.70;;
9138;SDS011;4604;48.616;9.548;2022-07-29T14:46:55;4.05;;;3.67;;
9138;SDS011;4604;48.616;9.548;2022-07-29T14:49:23;4.50;;;4.10;;
9138;SDS011;4604;48.616;9.548;2022-07-29T14:51:49;4.30;;;3.80;;
9138;SDS011;4604;48.616;9.548;2022-07-29T14:54:16;4.72;;;3.83;;
9138;SDS011;4604;48.616;9.548;2022-07-29T14:56:43;3.92;;;3.60;;
9138;SDS011;4604;48.616;9.548;2022-07-29T14:59:10;4.75;;;3.95;;
9138;SDS011;4604;48.616;9.548;2022-07-29T15:01:38;4.03;;;3.72;;
9138;SDS011;4604;48.616;9.548;2022-07-29T15:04:05;3.92;;;3.60;;
9138;SDS011;4604;48.616;9.548;2022-07-29T15:06:32;4.68;;;3.97;;
9138;SDS011;4604;48.616;9.548;2022-07-29T15:08:59;4.50;;;4.10;;
9138;SDS011;4604;48.616;9.548;2022-07-29T15:11:25;4.18;;;3.78;;
9138;SDS011;4604;48.616;9.548;2022-07-29T15:13:52;4.82;;;4.05;;
9138;SDS011;4604;48.616;9.548;2022-07-29T15:16:19;4.72;;;3.85;;
9138;SDS011;4604;48.616;9.548;2022-07-29T15:18:47;4.30;;;4.00;;
9138;SDS011;4604;48.616;9.548;2022-07-29T15:21:14;5.93;;;4.00;;
9138;SDS011;4604;48.616;9.548;2022-07-29T15:23:41;6.60;;;4.22;;
9138;SDS011;4604;48.616;9.548;2022-07-29T15:26:09;4.82;;;3.78;;
9138;SDS011;4604;48.616;9.548;2022-07-29T15:31:06;4.65;;;4.25;;
9138;SDS011;4604;48.616;9.548;2022-07-29T15:33:34;4.85;;;3.92;;
9138;SDS011;4604;48.616;9.548;2022-07-29T15:36:02;4.15;;;3.85;;
9138;SDS011;4604;48.616;9.548;2022-07-29T15:38:30;4.10;;;3.70;;
9138;SDS011;4604;48.616;9.548;2022-07-29T15:40:57;5.28;;;4.20;;
9138;SDS011;4604;48.616;9.548;2022-07-29T15:43:24;4.75;;;3.97;;
9138;SDS011;4604;48.616;9.548;2022-07-29T15:45:51;4.57;;;4.18;;
9138;SDS011;4604;48.616;9.548;2022-07-29T15:48:36;4.30;;;3.88;;
9138;SDS011;4604;48.616;9.548;2022-07-29T15:51:05;4.50;;;4.10;;
9138;SDS011;4604;48.616;9.548;2022-07-29T15:53:32;4.75;;;4.03;;
9138;SDS011;4604;48.616;9.548;2022-07-29T15:55:59;4.68;;;4.28;;
9138;SDS011;4604;48.616;9.548;2022-07-29T15:58:26;4.60;;;4.20;;
9138;SDS011;4604;48.616;9.548;2022-07-29T16:00:53;4.47;;;4.07;;
9138;SDS011;4604;48.616;9.548;2022-07-29T16:03:20;4.78;;;4.30;;
9138;SDS011;4604;48.616;9.548;2022-07-29T16:05:47;3.97;;;3.58;;
9138;SDS011;4604;48.616;9.548;2022-07-29T16:08:15;4.68;;;3.92;;